sensor_id;sensor_type;location;lat;lon;timestamp;pressure;altitude;pressure_sealevel;temperature;humidity
77855;BME280;67046;50.088;14.336;2023-02-15T00:00:26;99111.08;;;4.84;69.42
77855;BME280;67046;50.088;14.336;2023-02-15T00:01:18;99113.02;;;4.82;69.56
77855;BME280;67046;50.088;14.336;2023-02-15T00:01:51;99116.09;;;4.81;69.24
77855;BME280;67046;50.088;14.336;2023-02-15T00:02:23;99114.27;;;4.82;69.44
77855;BME280;67046;50.088;14.336;2023-02-15T00:02:55;99111.62;;;4.82;69.30
77855;BME280;67046;50.088;14.336;2023-02-15T00:03:28;99114.17;;;4.83;69.44
77855;BME280;67046;50.088;14.336;2023-02-15T00:04:00;99114.02;;;4.83;69.22
77855;BME280;67046;50.088;14.336;2023-02-15T00:04:32;99113.73;;;4.84;69.38
77855;BME280;67046;50.088;14.336;2023-02-15T00:05:19;99110.51;;;4.83;69.28
77855;BME280;67046;50.088;14.336;2023-02-15T00:05:51;99112.92;;;4.83;69.35
77855;BME280;67046;50.088;14.336;2023-02-15T00:06:23;99112.52;;;4.83;69.28
77855;BME280;67046;50.088;14.336;2023-02-15T00:06:55;99109.64;;;4.84;69.28
77855;BME280;67046;50.088;14.336;2023-02-15T00:07:27;99115.18;;;4.85;69.45
77855;BME280;67046;50.088;14.336;2023-02-15T00:07:59;99115.37;;;4.86;69.36
77855;BME280;67046;50.088;14.336;2023-02-15T00:08:31;99115.25;;;4.87;69.28
77855;BME280;67046;50.088;14.336;2023-02-15T00:09:03;99113.55;;;4.88;69.40
77855;BME280;67046;50.088;14.336;2023-02-15T00:09:35;99115.32;;;4.90;69.40
77855;BME280;67046;50.088;14.336;2023-02-15T00:10:07;99122.64;;;4.91;69.33
77855;BME280;67046;50.088;14.336;2023-02-15T00:10:39;99117.71;;;4.94;69.45
77855;BME280;67046;50.088;14.336;2023-02-15T00:11:16;99114.95;;;4.95;69.36
77855;BME280;67046;50.088;14.336;2023-02-15T00:12:09;99109.32;;;4.95;69.26
77855;BME280;67046;50.088;14.336;2023-02-15T00:12:42;99112.60;;;4.96;69.34
77855;BME280;67046;50.088;14.336;2023-02-15T00:13:14;99111.46;;;4.96;69.39
77855;BME280;67046;50.088;14.336;2023-02-15T00:13:46;99112.64;;;4.97;69.25
77855;BME280;67046;50.088;14.336;2023-02-15T00:14:23;99110.38;;;4.97;69.28
77855;BME280;67046;50.088;14.336;2023-02-15T00:14:55;99107.36;;;4.95;69.28
77855;BME280;67046;50.088;14.336;2023-02-15T00:15:27;99110.38;;;4.95;69.22
77855;BME280;67046;50.088;14.336;2023-02-15T00:16:03;99110.95;;;4.94;69.24
77855;BME280;67046;50.088;14.336;2023-02-15T00:16:35;99108.61;;;4.94;69.03
77855;BME280;67046;50.088;14.336;2023-02-15T00:17:07;99107.13;;;4.93;69.25
77855;BME280;67046;50.088;14.336;2023-02-15T00:17:39;99105.46;;;4.91;69.17
77855;BME280;67046;50.088;14.336;2023-02-15T00:18:11;99109.65;;;4.89;69.10
77855;BME280;67046;50.088;14.336;2023-02-15T00:18:43;99106.24;;;4.86;69.01
77855;BME280;67046;50.088;14.336;2023-02-15T00:19:17;99108.36;;;4.85;69.32
77855;BME280;67046;50.088;14.336;2023-02-15T00:19:49;99104.97;;;4.82;69.36
77855;BME280;67046;50.088;14.336;2023-02-15T00:20:21;99113.05;;;4.82;69.25
77855;BME280;67046;50.088;14.336;2023-02-15T00:20:53;99108.34;;;4.82;69.37
77855;BME280;67046;50.088;14.336;2023-02-15T00:21:25;99109.71;;;4.82;69.31
77855;BME280;67046;50.088;14.336;2023-02-15T00:21:57;99112.30;;;4.82;69.44
77855;BME280;67046;50.088;14.336;2023-02-15T00:22:29;99108.41;;;4.83;69.42
77855;BME280;67046;50.088;14.336;2023-02-15T00:23:01;99110.08;;;4.84;69.03
77855;BME280;67046;50.088;14.336;2023-02-15T00:23:33;99110.04;;;4.84;69.34
77855;BME280;67046;50.088;14.336;2023-02-15T00:24:07;99109.76;;;4.85;69.47
77855;BME280;67046;50.088;14.336;2023-02-15T00:24:40;99109.02;;;4.85;69.33
77855;BME280;67046;50.088;14.336;2023-02-15T00:25:12;99110.17;;;4.84;69.29
77855;BME280;67046;50.088;14.336;2023-02-15T00:25:44;99111.25;;;4.84;69.34
77855;BME280;67046;50.088;14.336;2023-02-15T00:26:16;99109.52;;;4.84;69.19
77855;BME280;67046;50.088;14.336;2023-02-15T00:26:48;99108.14;;;4.84;69.42
77855;BME280;67046;50.088;14.336;2023-02-15T00:27:21;99109.06;;;4.85;69.61
77855;BME280;67046;50.088;14.336;2023-02-15T00:27:53;99104.86;;;4.85;69.32
77855;BME280;67046;50.088;14.336;2023-02-15T00:28:25;99108.77;;;4.86;69.32
77855;BME280;67046;50.088;14.336;2023-02-15T00:28:57;99103.65;;;4.86;69.41
77855;BME280;67046;50.088;14.336;2023-02-15T00:29:32;99103.66;;;4.88;69.43
77855;BME280;67046;50.088;14.336;2023-02-15T00:30:05;99102.83;;;4.89;69.30
77855;BME280;67046;50.088;14.336;2023-02-15T00:30:37;99103.23;;;4.90;69.14
77855;BME280;67046;50.088;14.336;2023-02-15T00:31:11;99100.77;;;4.90;69.33
77855;BME280;67046;50.088;14.336;2023-02-15T00:31:43;99100.02;;;4.92;69.24
77855;BME280;67046;50.088;14.336;2023-02-15T00:32:15;99101.31;;;4.93;69.16
77855;BME280;67046;50.088;14.336;2023-02-15T00:32:47;99100.91;;;4.94;69.19
77855;BME280;67046;50.088;14.336;2023-02-15T00:33:19;99099.63;;;4.94;69.08
77855;BME280;67046;50.088;14.336;2023-02-15T00:33:51;99099.63;;;4.94;69.23
77855;BME280;67046;50.088;14.336;2023-02-15T00:34:26;99099.55;;;4.95;69.07
77855;BME280;67046;50.088;14.336;2023-02-15T00:34:58;99102.32;;;4.96;69.24
77855;BME280;67046;50.088;14.336;2023-02-15T00:35:30;99100.95;;;4.94;69.10
77855;BME280;67046;50.088;14.336;2023-02-15T00:36:03;99101.83;;;4.92;69.20
77855;BME280;67046;50.088;14.336;2023-02-15T00:36:36;99105.27;;;4.91;69.04
77855;BME280;67046;50.088;14.336;2023-02-15T00:37:08;99101.20;;;4.90;69.26
77855;BME280;67046;50.088;14.336;2023-02-15T00:37:40;99101.08;;;4.88;69.11
77855;BME280;67046;50.088;14.336;2023-02-15T00:38:12;99101.63;;;4.87;69.12
77855;BME280;67046;50.088;14.336;2023-02-15T00:38:44;99103.04;;;4.87;69.27
77855;BME280;67046;50.088;14.336;2023-02-15T00:39:17;99097.96;;;4.87;69.28
77855;BME280;67046;50.088;14.336;2023-02-15T00:39:49;99103.36;;;4.87;69.33
77855;BME280;67046;50.088;14.336;2023-02-15T00:40:21;99099.47;;;4.88;69.13
77855;BME280;67046;50.088;14.336;2023-02-15T00:40:54;99100.25;;;4.87;69.15
77855;BME280;67046;50.088;14.336;2023-02-15T00:41:26;99100.31;;;4.87;69.07
77855;BME280;67046;50.088;14.336;2023-02-15T00:41:58;99102.93;;;4.87;69.37
77855;BME280;67046;50.088;14.336;2023-02-15T00:42:30;99098.93;;;4.86;69.00
77855;BME280;67046;50.088;14.336;2023-02-15T00:43:02;99097.01;;;4.88;69.10
77855;BME280;67046;50.088;14.336;2023-02-15T00:43:35;99096.64;;;4.90;69.30
77855;BME280;67046;50.088;14.336;2023-02-15T00:44:08;99098.71;;;4.90;69.15
77855;BME280;67046;50.088;14.336;2023-02-15T00:44:40;99097.73;;;4.91;69.17
77855;BME280;67046;50.088;14.336;2023-02-15T00:45:11;99098.81;;;4.89;69.34
77855;BME280;67046;50.088;14.336;2023-02-15T00:45:45;99099.36;;;4.87;69.09
77855;BME280;67046;50.088;14.336;2023-02-15T00:46:17;99099.04;;;4.87;69.33
77855;BME280;67046;50.088;14.336;2023-02-15T00:46:49;99097.30;;;4.87;69.37
77855;BME280;67046;50.088;14.336;2023-02-15T00:47:21;99098.10;;;4.88;69.19
77855;BME280;67046;50.088;14.336;2023-02-15T00:47:53;99098.95;;;4.88;69.39
77855;BME280;67046;50.088;14.336;2023-02-15T00:48:26;99097.27;;;4.89;69.31
77855;BME280;67046;50.088;14.336;2023-02-15T00:48:58;99095.30;;;4.88;69.10
77855;BME280;67046;50.088;14.336;2023-02-15T00:49:30;99095.63;;;4.86;69.34
77855;BME280;67046;50.088;14.336;2023-02-15T00:50:02;99097.13;;;4.85;69.29
77855;BME280;67046;50.088;14.336;2023-02-15T00:50:34;99092.81;;;4.83;69.19
77855;BME280;67046;50.088;14.336;2023-02-15T00:51:06;99094.48;;;4.82;69.30
77855;BME280;67046;50.088;14.336;2023-02-15T00:51:38;99093.28;;;4.82;69.28
77855;BME280;67046;50.088;14.336;2023-02-15T00:52:11;99097.45;;;4.81;69.33
77855;BME280;67046;50.088;14.336;2023-02-15T00:52:43;99094.25;;;4.81;69.20
77855;BME280;67046;50.088;14.336;2023-02-15T00:53:15;99095.82;;;4.81;69.36
77855;BME280;67046;50.088;14.336;2023-02-15T00:53:47;99095.20;;;4.82;69.14
77855;BME280;67046;50.088;14.336;2023-02-15T00:54:19;99094.11;;;4.83;69.43
77855;BME280;67046;50.088;14.336;2023-02-15T00:54:51;99094.43;;;4.83;69.45
77855;BME280;67046;50.088;14.336;2023-02-15T00:55:23;99095.80;;;4.83;69.20
77855;BME280;67046;50.088;14.336;2023-02-15T00:55:56;99093.54;;;4.83;69.23
77855;BME280;67046;50.088;14.336;2023-02-15T00:56:29;99096.19;;;4.84;69.25
77855;BME280;67046;50.088;14.336;2023-02-15T00:57:01;99094.44;;;4.86;69.25
77855;BME280;67046;50.088;14.336;2023-02-15T00:57:32;99093.77;;;4.87;69.38
77855;BME280;67046;50.088;14.336;2023-02-15T00:58:04;99092.79;;;4.88;69.30
77855;BME280;67046;50.088;14.336;2023-02-15T00:58:36;99092.23;;;4.88;69.27
77855;BME280;67046;50.088;14.336;2023-02-15T00:59:09;99092.13;;;4.89;69.45
77855;BME280;67046;50.088;14.336;2023-02-15T00:59:41;99091.67;;;4.90;69.26
77855;BME280;67046;50.088;14.336;2023-02-15T01:00:13;99091.27;;;4.89;69.25
77855;BME280;67046;50.088;14.336;2023-02-15T01:00:46;99092.55;;;4.89;69.14
77855;BME280;67046;50.088;14.336;2023-02-15T01:01:20;99090.82;;;4.87;69.28
77855;BME280;67046;50.088;14.336;2023-02-15T01:01:52;99090.85;;;4.85;69.16
77855;BME280;67046;50.088;14.336;2023-02-15T01:02:24;99092.20;;;4.84;69.30
77855;BME280;67046;50.088;14.336;2023-02-15T01:02:56;99088.46;;;4.83;69.26
77855;BME280;67046;50.088;14.336;2023-02-15T01:03:28;99091.52;;;4.83;69.30
77855;BME280;67046;50.088;14.336;2023-02-15T01:04:01;99093.17;;;4.83;69.35
77855;BME280;67046;50.088;14.336;2023-02-15T01:04:33;99088.46;;;4.81;69.30
77855;BME280;67046;50.088;14.336;2023-02-15T01:05:05;99092.85;;;4.80;69.34
77855;BME280;67046;50.088;14.336;2023-02-15T01:05:38;99092.19;;;4.76;69.41
77855;BME280;67046;50.088;14.336;2023-02-15T01:06:10;99092.21;;;4.74;69.28
77855;BME280;67046;50.088;14.336;2023-02-15T01:06:42;99094.67;;;4.69;69.44
77855;BME280;67046;50.088;14.336;2023-02-15T01:07:14;99094.02;;;4.65;69.58
77855;BME280;67046;50.088;14.336;2023-02-15T01:07:46;99091.36;;;4.62;69.43
77855;BME280;67046;50.088;14.336;2023-02-15T01:08:18;99090.54;;;4.60;69.36
77855;BME280;67046;50.088;14.336;2023-02-15T01:08:50;99093.15;;;4.59;69.41
77855;BME280;67046;50.088;14.336;2023-02-15T01:09:22;99087.98;;;4.58;69.48
77855;BME280;67046;50.088;14.336;2023-02-15T01:09:54;99091.00;;;4.57;69.59
77855;BME280;67046;50.088;14.336;2023-02-15T01:10:27;99090.64;;;4.57;69.58
77855;BME280;67046;50.088;14.336;2023-02-15T01:11:20;99086.23;;;4.58;69.71
77855;BME280;67046;50.088;14.336;2023-02-15T01:11:55;99087.73;;;4.57;69.60
77855;BME280;67046;50.088;14.336;2023-02-15T01:12:27;99089.16;;;4.57;69.71
77855;BME280;67046;50.088;14.336;2023-02-15T01:12:59;99086.05;;;4.56;69.72
77855;BME280;67046;50.088;14.336;2023-02-15T01:13:31;99083.77;;;4.57;69.70
77855;BME280;67046;50.088;14.336;2023-02-15T01:14:02;99088.89;;;4.56;69.72
77855;BME280;67046;50.088;14.336;2023-02-15T01:14:35;99087.26;;;4.53;69.68
77855;BME280;67046;50.088;14.336;2023-02-15T01:15:08;99084.10;;;4.52;69.83
77855;BME280;67046;50.088;14.336;2023-02-15T01:15:40;99087.27;;;4.50;70.05
77855;BME280;67046;50.088;14.336;2023-02-15T01:16:12;99085.09;;;4.48;69.77
77855;BME280;67046;50.088;14.336;2023-02-15T01:16:44;99082.00;;;4.47;69.89
77855;BME280;67046;50.088;14.336;2023-02-15T01:17:16;99082.34;;;4.45;69.75
77855;BME280;67046;50.088;14.336;2023-02-15T01:17:48;99080.84;;;4.46;69.84
77855;BME280;67046;50.088;14.336;2023-02-15T01:18:24;99080.27;;;4.45;69.87
77855;BME280;67046;50.088;14.336;2023-02-15T01:18:56;99083.02;;;4.46;69.94
77855;BME280;67046;50.088;14.336;2023-02-15T01:19:28;99082.61;;;4.46;70.00
77855;BME280;67046;50.088;14.336;2023-02-15T01:20:01;99081.83;;;4.47;70.03
77855;BME280;67046;50.088;14.336;2023-02-15T01:20:35;99078.50;;;4.47;69.99
77855;BME280;67046;50.088;14.336;2023-02-15T01:21:19;99078.69;;;4.47;70.14
77855;BME280;67046;50.088;14.336;2023-02-15T01:21:52;99079.23;;;4.45;70.13
77855;BME280;67046;50.088;14.336;2023-02-15T01:22:24;99077.61;;;4.44;70.08
77855;BME280;67046;50.088;14.336;2023-02-15T01:22:57;99074.34;;;4.43;70.09
77855;BME280;67046;50.088;14.336;2023-02-15T01:23:29;99075.16;;;4.44;70.08
77855;BME280;67046;50.088;14.336;2023-02-15T01:24:01;99074.15;;;4.45;70.06
77855;BME280;67046;50.088;14.336;2023-02-15T01:24:33;99070.69;;;4.45;70.03
77855;BME280;67046;50.088;14.336;2023-02-15T01:25:05;99071.17;;;4.45;70.00
77855;BME280;67046;50.088;14.336;2023-02-15T01:25:37;99067.19;;;4.45;69.93
77855;BME280;67046;50.088;14.336;2023-02-15T01:26:10;99070.31;;;4.47;69.92
77855;BME280;67046;50.088;14.336;2023-02-15T01:26:42;99069.48;;;4.48;70.05
77855;BME280;67046;50.088;14.336;2023-02-15T01:27:14;99068.33;;;4.49;70.15
77855;BME280;67046;50.088;14.336;2023-02-15T01:27:46;99071.51;;;4.50;69.99
77855;BME280;67046;50.088;14.336;2023-02-15T01:28:18;99070.23;;;4.51;70.03
77855;BME280;67046;50.088;14.336;2023-02-15T01:28:50;99068.91;;;4.49;70.00
77855;BME280;67046;50.088;14.336;2023-02-15T01:29:22;99067.58;;;4.48;70.11
77855;BME280;67046;50.088;14.336;2023-02-15T01:29:54;99066.90;;;4.48;70.09
77855;BME280;67046;50.088;14.336;2023-02-15T01:30:26;99064.61;;;4.48;70.07
77855;BME280;67046;50.088;14.336;2023-02-15T01:30:58;99070.13;;;4.49;69.98
77855;BME280;67046;50.088;14.336;2023-02-15T01:31:30;99069.55;;;4.51;70.12
77855;BME280;67046;50.088;14.336;2023-02-15T01:32:02;99068.81;;;4.49;69.99
77855;BME280;67046;50.088;14.336;2023-02-15T01:32:34;99065.90;;;4.49;70.04
77855;BME280;67046;50.088;14.336;2023-02-15T01:33:07;99067.06;;;4.48;70.12
77855;BME280;67046;50.088;14.336;2023-02-15T01:33:39;99066.33;;;4.48;70.22
77855;BME280;67046;50.088;14.336;2023-02-15T01:34:11;99064.44;;;4.48;70.01
77855;BME280;67046;50.088;14.336;2023-02-15T01:34:43;99061.02;;;4.47;70.07
77855;BME280;67046;50.088;14.336;2023-02-15T01:35:15;99063.86;;;4.47;70.24
77855;BME280;67046;50.088;14.336;2023-02-15T01:35:47;99062.11;;;4.45;70.04
77855;BME280;67046;50.088;14.336;2023-02-15T01:36:19;99059.07;;;4.44;70.05
77855;BME280;67046;50.088;14.336;2023-02-15T01:36:51;99058.88;;;4.43;70.14
77855;BME280;67046;50.088;14.336;2023-02-15T01:37:23;99058.33;;;4.41;70.29
77855;BME280;67046;50.088;14.336;2023-02-15T01:37:56;99056.09;;;4.40;70.16
77855;BME280;67046;50.088;14.336;2023-02-15T01:38:27;99053.13;;;4.38;70.14
77855;BME280;67046;50.088;14.336;2023-02-15T01:39:00;99055.59;;;4.35;70.30
77855;BME280;67046;50.088;14.336;2023-02-15T01:39:32;99054.85;;;4.33;70.19
77855;BME280;67046;50.088;14.336;2023-02-15T01:40:07;99055.02;;;4.33;70.30
77855;BME280;67046;50.088;14.336;2023-02-15T01:40:40;99053.88;;;4.34;70.46
77855;BME280;67046;50.088;14.336;2023-02-15T01:41:13;99050.67;;;4.33;70.23
77855;BME280;67046;50.088;14.336;2023-02-15T01:41:58;99051.18;;;4.33;70.27
77855;BME280;67046;50.088;14.336;2023-02-15T01:42:30;99055.54;;;4.33;70.34
77855;BME280;67046;50.088;14.336;2023-02-15T01:43:03;99055.65;;;4.34;70.29
77855;BME280;67046;50.088;14.336;2023-02-15T01:43:42;99049.91;;;4.35;70.46
77855;BME280;67046;50.088;14.336;2023-02-15T01:45:20;99047.91;;;4.36;70.28
77855;BME280;67046;50.088;14.336;2023-02-15T01:45:53;99049.16;;;4.36;70.39
77855;BME280;67046;50.088;14.336;2023-02-15T01:46:37;99050.24;;;4.35;70.47
77855;BME280;67046;50.088;14.336;2023-02-15T01:47:12;99051.39;;;4.34;70.34
77855;BME280;67046;50.088;14.336;2023-02-15T01:47:49;99051.95;;;4.34;70.36
77855;BME280;67046;50.088;14.336;2023-02-15T01:48:26;99050.77;;;4.34;70.34
77855;BME280;67046;50.088;14.336;2023-02-15T01:49:11;99051.27;;;4.34;70.31
77855;BME280;67046;50.088;14.336;2023-02-15T01:49:46;99048.52;;;4.34;70.37
77855;BME280;67046;50.088;14.336;2023-02-15T01:50:41;99049.00;;;4.34;70.33
77855;BME280;67046;50.088;14.336;2023-02-15T01:51:17;99050.92;;;4.34;70.51
77855;BME280;67046;50.088;14.336;2023-02-15T01:51:51;99048.38;;;4.33;70.50
77855;BME280;67046;50.088;14.336;2023-02-15T01:52:25;99049.89;;;4.34;70.45
77855;BME280;67046;50.088;14.336;2023-02-15T01:53:06;99048.61;;;4.34;70.55
77855;BME280;67046;50.088;14.336;2023-02-15T01:53:48;99046.94;;;4.35;70.68
77855;BME280;67046;50.088;14.336;2023-02-15T01:54:27;99044.73;;;4.35;70.49
77855;BME280;67046;50.088;14.336;2023-02-15T01:55:01;99042.77;;;4.34;70.52
77855;BME280;67046;50.088;14.336;2023-02-15T01:55:38;99043.89;;;4.33;70.52
77855;BME280;67046;50.088;14.336;2023-02-15T01:56:16;99040.39;;;4.31;70.60
77855;BME280;67046;50.088;14.336;2023-02-15T01:56:50;99040.69;;;4.30;70.42
77855;BME280;67046;50.088;14.336;2023-02-15T01:57:23;99041.87;;;4.29;70.52
77855;BME280;67046;50.088;14.336;2023-02-15T01:57:58;99035.20;;;4.27;70.52
77855;BME280;67046;50.088;14.336;2023-02-15T01:58:32;99037.02;;;4.29;70.55
77855;BME280;67046;50.088;14.336;2023-02-15T01:59:09;99032.56;;;4.28;70.69
77855;BME280;67046;50.088;14.336;2023-02-15T01:59:46;99033.52;;;4.29;70.56
77855;BME280;67046;50.088;14.336;2023-02-15T02:00:21;99031.20;;;4.29;70.78
77855;BME280;67046;50.088;14.336;2023-02-15T02:00:54;99031.42;;;4.30;70.60
77855;BME280;67046;50.088;14.336;2023-02-15T02:01:27;99030.02;;;4.32;70.48
77855;BME280;67046;50.088;14.336;2023-02-15T02:02:00;99031.10;;;4.34;70.64
77855;BME280;67046;50.088;14.336;2023-02-15T02:02:34;99032.96;;;4.35;70.53
77855;BME280;67046;50.088;14.336;2023-02-15T02:03:06;99033.89;;;4.37;70.62
77855;BME280;67046;50.088;14.336;2023-02-15T02:03:41;99034.84;;;4.37;70.55
77855;BME280;67046;50.088;14.336;2023-02-15T02:04:18;99030.95;;;4.36;70.66
77855;BME280;67046;50.088;14.336;2023-02-15T02:04:58;99032.71;;;4.36;70.73
77855;BME280;67046;50.088;14.336;2023-02-15T02:05:31;99030.78;;;4.36;70.55
77855;BME280;67046;50.088;14.336;2023-02-15T02:06:04;99031.58;;;4.37;70.75
77855;BME280;67046;50.088;14.336;2023-02-15T02:06:37;99029.90;;;4.38;70.53
77855;BME280;67046;50.088;14.336;2023-02-15T02:07:12;99028.73;;;4.39;70.70
77855;BME280;67046;50.088;14.336;2023-02-15T02:07:46;99029.77;;;4.41;70.38
77855;BME280;67046;50.088;14.336;2023-02-15T02:08:20;99026.96;;;4.41;70.60
77855;BME280;67046;50.088;14.336;2023-02-15T02:08:53;99024.33;;;4.41;70.65
77855;BME280;67046;50.088;14.336;2023-02-15T02:09:26;99025.02;;;4.43;70.53
77855;BME280;67046;50.088;14.336;2023-02-15T02:09:59;99030.94;;;4.43;70.43
77855;BME280;67046;50.088;14.336;2023-02-15T02:10:31;99029.75;;;4.43;70.46
77855;BME280;67046;50.088;14.336;2023-02-15T02:11:10;99024.87;;;4.43;70.50
77855;BME280;67046;50.088;14.336;2023-02-15T02:11:44;99027.19;;;4.44;70.46
77855;BME280;67046;50.088;14.336;2023-02-15T02:12:18;99027.48;;;4.43;70.50
77855;BME280;67046;50.088;14.336;2023-02-15T02:12:57;99029.02;;;4.41;70.37
77855;BME280;67046;50.088;14.336;2023-02-15T02:13:30;99025.25;;;4.39;70.45
77855;BME280;67046;50.088;14.336;2023-02-15T02:14:02;99022.67;;;4.37;70.36
77855;BME280;67046;50.088;14.336;2023-02-15T02:14:36;99025.22;;;4.36;70.34
77855;BME280;67046;50.088;14.336;2023-02-15T02:15:08;99027.08;;;4.35;70.37
77855;BME280;67046;50.088;14.336;2023-02-15T02:15:44;99023.88;;;4.34;70.43
77855;BME280;67046;50.088;14.336;2023-02-15T02:16:28;99021.77;;;4.31;70.47
77855;BME280;67046;50.088;14.336;2023-02-15T02:19:05;99025.30;;;4.31;70.50
77855;BME280;67046;50.088;14.336;2023-02-15T02:21:16;99026.73;;;4.29;70.57
77855;BME280;67046;50.088;14.336;2023-02-15T02:25:24;99023.50;;;4.23;70.62
77855;BME280;67046;50.088;14.336;2023-02-15T02:26:05;99021.89;;;4.22;70.82
77855;BME280;67046;50.088;14.336;2023-02-15T02:27:37;99022.63;;;4.16;70.74
77855;BME280;67046;50.088;14.336;2023-02-15T02:33:20;99015.33;;;4.01;70.88
77855;BME280;67046;50.088;14.336;2023-02-15T02:34:19;99013.15;;;4.00;70.95
77855;BME280;67046;50.088;14.336;2023-02-15T02:38:48;99012.69;;;3.88;71.08
77855;BME280;67046;50.088;14.336;2023-02-15T02:40:24;99010.33;;;3.86;71.30
77855;BME280;67046;50.088;14.336;2023-02-15T02:42:06;99011.65;;;3.87;71.31
77855;BME280;67046;50.088;14.336;2023-02-15T02:42:43;99010.91;;;3.87;71.37
77855;BME280;67046;50.088;14.336;2023-02-15T02:43:30;99010.82;;;3.88;71.32
77855;BME280;67046;50.088;14.336;2023-02-15T02:44:16;99009.79;;;3.89;71.37
77855;BME280;67046;50.088;14.336;2023-02-15T02:44:54;99012.14;;;3.90;71.33
77855;BME280;67046;50.088;14.336;2023-02-15T02:45:32;99016.72;;;3.91;71.40
77855;BME280;67046;50.088;14.336;2023-02-15T02:46:17;99013.86;;;3.90;71.33
77855;BME280;67046;50.088;14.336;2023-02-15T02:47:00;99012.23;;;3.88;71.15
77855;BME280;67046;50.088;14.336;2023-02-15T02:47:51;99014.04;;;3.84;71.36
77855;BME280;67046;50.088;14.336;2023-02-15T02:48:27;99012.48;;;3.80;71.33
77855;BME280;67046;50.088;14.336;2023-02-15T02:49:02;99017.27;;;3.80;71.54
77855;BME280;67046;50.088;14.336;2023-02-15T02:49:39;99014.69;;;3.79;71.31
77855;BME280;67046;50.088;14.336;2023-02-15T02:50:17;99011.68;;;3.80;71.44
77855;BME280;67046;50.088;14.336;2023-02-15T02:50:49;99015.21;;;3.79;71.49
77855;BME280;67046;50.088;14.336;2023-02-15T02:51:21;99012.70;;;3.78;71.47
77855;BME280;67046;50.088;14.336;2023-02-15T02:52:02;99013.58;;;3.78;71.45
77855;BME280;67046;50.088;14.336;2023-02-15T02:52:43;99010.90;;;3.79;71.50
77855;BME280;67046;50.088;14.336;2023-02-15T02:53:15;99012.11;;;3.79;71.57
77855;BME280;67046;50.088;14.336;2023-02-15T02:53:52;99009.73;;;3.79;71.48
77855;BME280;67046;50.088;14.336;2023-02-15T02:54:25;99008.29;;;3.79;71.31
77855;BME280;67046;50.088;14.336;2023-02-15T02:54:57;99008.17;;;3.76;71.44
77855;BME280;67046;50.088;14.336;2023-02-15T02:55:35;99005.79;;;3.76;71.47
77855;BME280;67046;50.088;14.336;2023-02-15T02:56:21;99007.09;;;3.75;71.43
77855;BME280;67046;50.088;14.336;2023-02-15T02:56:55;99004.02;;;3.75;71.60
77855;BME280;67046;50.088;14.336;2023-02-15T02:57:29;99007.36;;;3.76;71.57
77855;BME280;67046;50.088;14.336;2023-02-15T02:58:17;99006.80;;;3.78;71.59
77855;BME280;67046;50.088;14.336;2023-02-15T02:59:05;99008.65;;;3.79;71.59
77855;BME280;67046;50.088;14.336;2023-02-15T02:59:42;99007.89;;;3.79;71.65
77855;BME280;67046;50.088;14.336;2023-02-15T03:00:17;99008.50;;;3.80;71.80
77855;BME280;67046;50.088;14.336;2023-02-15T03:01:08;99007.70;;;3.81;71.70
77855;BME280;67046;50.088;14.336;2023-02-15T03:01:46;99006.78;;;3.81;71.60
77855;BME280;67046;50.088;14.336;2023-02-15T03:02:28;99007.86;;;3.81;71.70
77855;BME280;67046;50.088;14.336;2023-02-15T03:03:25;99005.08;;;3.83;71.68
77855;BME280;67046;50.088;14.336;2023-02-15T03:04:18;99006.45;;;3.83;71.80
77855;BME280;67046;50.088;14.336;2023-02-15T03:05:01;99004.27;;;3.82;71.60
77855;BME280;67046;50.088;14.336;2023-02-15T03:05:39;99004.65;;;3.82;71.63
77855;BME280;67046;50.088;14.336;2023-02-15T03:06:17;99005.44;;;3.82;71.57
77855;BME280;67046;50.088;14.336;2023-02-15T03:07:02;99005.22;;;3.83;71.56
77855;BME280;67046;50.088;14.336;2023-02-15T03:07:36;99004.97;;;3.84;71.70
77855;BME280;67046;50.088;14.336;2023-02-15T03:08:09;99003.79;;;3.85;71.61
77855;BME280;67046;50.088;14.336;2023-02-15T03:08:45;99004.21;;;3.86;71.73
77855;BME280;67046;50.088;14.336;2023-02-15T03:09:25;99006.88;;;3.87;71.67
77855;BME280;67046;50.088;14.336;2023-02-15T03:10:13;99007.37;;;3.88;71.60
77855;BME280;67046;50.088;14.336;2023-02-15T03:10:46;99003.18;;;3.87;71.64
77855;BME280;67046;50.088;14.336;2023-02-15T03:11:18;99009.62;;;3.89;71.69
77855;BME280;67046;50.088;14.336;2023-02-15T03:11:50;99009.06;;;3.91;71.70
77855;BME280;67046;50.088;14.336;2023-02-15T03:12:32;99006.46;;;3.93;71.55
77855;BME280;67046;50.088;14.336;2023-02-15T03:13:06;99008.72;;;3.94;71.45
77855;BME280;67046;50.088;14.336;2023-02-15T03:13:39;99007.41;;;3.95;71.58
77855;BME280;67046;50.088;14.336;2023-02-15T03:14:14;99003.26;;;3.97;71.55
77855;BME280;67046;50.088;14.336;2023-02-15T03:14:51;99007.98;;;3.98;71.42
77855;BME280;67046;50.088;14.336;2023-02-15T03:15:28;99007.72;;;3.99;71.36
77855;BME280;67046;50.088;14.336;2023-02-15T03:16:21;99003.23;;;4.00;71.50
77855;BME280;67046;50.088;14.336;2023-02-15T03:17:00;99005.10;;;3.97;71.53
77855;BME280;67046;50.088;14.336;2023-02-15T03:17:35;99001.83;;;3.97;71.39
77855;BME280;67046;50.088;14.336;2023-02-15T03:18:08;98997.14;;;3.97;71.44
77855;BME280;67046;50.088;14.336;2023-02-15T03:18:44;98999.54;;;3.97;71.39
77855;BME280;67046;50.088;14.336;2023-02-15T03:19:28;98999.05;;;3.95;71.61
77855;BME280;67046;50.088;14.336;2023-02-15T03:20:07;99000.90;;;3.96;71.52
77855;BME280;67046;50.088;14.336;2023-02-15T03:20:40;98998.84;;;3.96;71.54
77855;BME280;67046;50.088;14.336;2023-02-15T03:21:13;99002.14;;;3.95;71.42
77855;BME280;67046;50.088;14.336;2023-02-15T03:22:21;99004.20;;;3.94;71.25
77855;BME280;67046;50.088;14.336;2023-02-15T03:23:03;99004.60;;;3.92;71.47
77855;BME280;67046;50.088;14.336;2023-02-15T03:23:36;99000.63;;;3.88;71.30
77855;BME280;67046;50.088;14.336;2023-02-15T03:24:14;98996.27;;;3.89;71.28
77855;BME280;67046;50.088;14.336;2023-02-15T03:25:11;99000.27;;;3.89;71.42
77855;BME280;67046;50.088;14.336;2023-02-15T03:25:52;98997.55;;;3.86;71.47